createdAt,value
2022-08-26T00:00:53.006Z,16.77
2022-08-26T00:03:23.635Z,16.80
2022-08-26T00:05:53.946Z,16.78
2022-08-26T00:08:22.957Z,16.78
2022-08-26T00:10:51.303Z,16.78
2022-08-26T00:13:19.941Z,16.76
2022-08-26T00:15:51.400Z,16.76
2022-08-26T00:18:22.408Z,16.72
2022-08-26T00:20:53.202Z,16.71
2022-08-26T00:23:24.288Z,16.70
2022-08-26T00:25:53.809Z,16.66
2022-08-26T00:28:23.286Z,16.64
2022-08-26T00:30:54.209Z,16.66
2022-08-26T00:33:23.104Z,16.64
2022-08-26T00:35:51.934Z,16.61
2022-08-26T00:38:23.023Z,16.54
2022-08-26T00:40:54.149Z,16.46
2022-08-26T00:43:25.055Z,16.41
2022-08-26T00:46:00.589Z,16.40
2022-08-26T00:48:33.883Z,16.40
2022-08-26T00:51:07.765Z,16.37
2022-08-26T00:53:41.483Z,16.34
2022-08-26T00:56:16.632Z,16.29
2022-08-26T00:58:47.987Z,16.24
2022-08-26T01:01:18.815Z,16.20
2022-08-26T01:03:56.399Z,16.18
2022-08-26T01:06:26.566Z,16.15
2022-08-26T01:08:54.901Z,16.13
2022-08-26T01:11:23.919Z,16.12
2022-08-26T01:13:55.447Z,16.07
2022-08-26T01:16:26.699Z,16.00
2022-08-26T01:18:59.783Z,16.01
2022-08-26T01:21:32.720Z,15.97
2022-08-26T01:24:03.212Z,15.95
2022-08-26T01:26:34.858Z,15.92
2022-08-26T01:29:06.561Z,15.91
2022-08-26T01:31:42.840Z,15.89
2022-08-26T01:34:18.902Z,15.86
2022-08-26T01:36:51.619Z,15.83
2022-08-26T01:39:21.655Z,15.82
2022-08-26T01:41:53.675Z,15.82
2022-08-26T01:44:26.756Z,15.82
2022-08-26T01:46:58.045Z,15.83
2022-08-26T01:49:28.992Z,15.82
2022-08-26T01:52:01.050Z,15.81
2022-08-26T01:54:30.788Z,15.80
2022-08-26T01:57:00.041Z,15.77
2022-08-26T01:59:29.570Z,15.74
2022-08-26T02:01:58.509Z,15.70
2022-08-26T02:04:30.927Z,15.68
2022-08-26T02:06:59.660Z,15.68
2022-08-26T02:09:30.803Z,15.69
2022-08-26T02:12:01.460Z,15.66
2022-08-26T02:14:34.722Z,15.64
2022-08-26T02:17:04.259Z,15.63
2022-08-26T02:19:36.916Z,15.42
2022-08-26T02:22:08.925Z,15.57
2022-08-26T02:24:50.283Z,15.52
2022-08-26T02:27:23.816Z,15.52
2022-08-26T02:29:56.664Z,15.54
2022-08-26T02:32:25.643Z,15.54
2022-08-26T02:34:55.415Z,15.53
2022-08-26T02:37:24.284Z,15.52
2022-08-26T02:39:55.151Z,15.56
2022-08-26T02:42:23.743Z,15.54
2022-08-26T02:44:53.403Z,15.52
2022-08-26T02:47:21.682Z,15.52
2022-08-26T02:49:55.012Z,15.49
2022-08-26T02:52:23.314Z,15.48
2022-08-26T02:54:51.586Z,15.49
2022-08-26T02:57:22.167Z,15.50
2022-08-26T02:59:51.471Z,15.50
2022-08-26T03:02:21.536Z,15.48
2022-08-26T03:04:57.309Z,15.45
2022-08-26T03:07:29.284Z,15.41
2022-08-26T03:09:58.148Z,15.37
2022-08-26T03:12:27.937Z,15.34
2022-08-26T03:14:56.594Z,15.32
2022-08-26T03:17:26.908Z,15.33
2022-08-26T03:19:57.018Z,15.29
2022-08-26T03:22:27.129Z,15.28
2022-08-26T03:24:56.428Z,15.27
2022-08-26T03:27:24.688Z,15.24
2022-08-26T03:30:12.041Z,15.23
2022-08-26T03:32:41.504Z,15.22
2022-08-26T03:35:10.792Z,15.24
2022-08-26T03:37:40.348Z,15.25
2022-08-26T03:40:11.630Z,15.23
2022-08-26T03:42:41.650Z,15.17
2022-08-26T03:45:17.006Z,15.18
2022-08-26T03:47:45.732Z,15.15
2022-08-26T03:50:23.026Z,15.13
2022-08-26T03:52:55.741Z,15.13
2022-08-26T03:55:26.411Z,15.15
2022-08-26T03:57:56.466Z,15.17
2022-08-26T04:00:27.587Z,15.21
2022-08-26T04:02:56.008Z,15.24
2022-08-26T04:05:24.901Z,15.21
2022-08-26T04:07:54.232Z,15.21
2022-08-26T04:10:29.300Z,15.21
2022-08-26T04:12:59.262Z,15.23
2022-08-26T04:15:29.609Z,15.24
2022-08-26T04:17:57.923Z,15.25
2022-08-26T04:20:26.641Z,15.24
2022-08-26T04:22:55.047Z,15.22
2022-08-26T04:25:24.130Z,15.18
2022-08-26T04:27:52.722Z,15.16
2022-08-26T04:30:21.392Z,15.17
2022-08-26T04:32:51.578Z,15.16
2022-08-26T04:35:25.849Z,15.12
2022-08-26T04:37:55.586Z,15.12
2022-08-26T04:40:25.078Z,15.12
2022-08-26T04:42:54.604Z,15.07
2022-08-26T04:45:23.081Z,15.09
2022-08-26T04:47:56.884Z,15.09
2022-08-26T04:50:26.572Z,15.10
2022-08-26T04:52:55.804Z,15.12
2022-08-26T04:55:38.253Z,15.14
2022-08-26T04:58:10.386Z,15.11
2022-08-26T05:00:39.465Z,15.10
2022-08-26T05:03:10.409Z,15.11
2022-08-26T05:05:43.498Z,15.10
2022-08-26T05:08:13.593Z,15.07
2022-08-26T05:10:42.358Z,15.04
2022-08-26T05:13:15.107Z,15.03
2022-08-26T05:15:45.502Z,15.01
2022-08-26T05:18:20.046Z,15.03
2022-08-26T05:20:54.549Z,15.00
2022-08-26T05:23:24.431Z,15.00
2022-08-26T05:25:58.905Z,15.04
2022-08-26T05:28:28.927Z,15.05
2022-08-26T05:30:57.802Z,15.05
2022-08-26T05:33:28.399Z,15.08
2022-08-26T05:35:57.019Z,15.08
2022-08-26T05:38:25.281Z,15.12
2022-08-26T05:40:59.032Z,15.17
2022-08-26T05:43:27.842Z,15.19
2022-08-26T05:45:56.407Z,15.25
2022-08-26T05:48:25.296Z,15.30
2022-08-26T05:50:55.181Z,15.37
2022-08-26T05:53:26.148Z,15.42
2022-08-26T05:55:56.222Z,15.48
2022-08-26T05:58:25.110Z,15.55
2022-08-26T06:01:00.801Z,15.72
2022-08-26T06:03:29.762Z,15.87
2022-08-26T06:06:00.633Z,16.02
2022-08-26T06:08:30.268Z,16.08
2022-08-26T06:11:04.551Z,16.14
2022-08-26T06:13:34.864Z,16.33
2022-08-26T06:16:06.354Z,16.91
2022-08-26T06:18:36.878Z,17.74
2022-08-26T06:21:16.989Z,18.77
2022-08-26T06:24:04.491Z,19.68
2022-08-26T06:26:34.435Z,20.33
2022-08-26T06:29:06.274Z,20.92
2022-08-26T06:31:36.538Z,21.49
2022-08-26T06:34:10.573Z,22.39
2022-08-26T06:36:43.927Z,22.91
2022-08-26T06:39:14.917Z,23.28
2022-08-26T06:41:45.102Z,23.50
2022-08-26T06:44:20.930Z,23.55
2022-08-26T06:46:50.725Z,23.32
2022-08-26T06:49:26.852Z,23.14
2022-08-26T06:51:59.008Z,22.74
2022-08-26T06:54:27.907Z,22.61
2022-08-26T06:56:57.039Z,23.54
2022-08-26T06:59:25.895Z,24.82
2022-08-26T07:01:54.869Z,25.34
2022-08-26T07:04:24.886Z,25.47
2022-08-26T07:06:58.088Z,26.24
2022-08-26T07:09:29.342Z,26.92
2022-08-26T07:11:58.135Z,27.82
2022-08-26T07:14:26.865Z,28.36
2022-08-26T07:16:55.659Z,28.11
2022-08-26T07:19:30.746Z,27.97
2022-08-26T07:22:04.062Z,28.97
2022-08-26T07:24:35.062Z,29.50
2022-08-26T07:27:07.294Z,30.30
2022-08-26T07:29:39.076Z,31.08
2022-08-26T07:32:08.355Z,31.46
2022-08-26T07:34:38.139Z,32.11
2022-08-26T07:37:08.862Z,31.97
2022-08-26T07:39:37.734Z,31.27
2022-08-26T07:42:09.408Z,29.66
2022-08-26T07:44:39.854Z,29.26
2022-08-26T07:47:24.236Z,28.92
2022-08-26T07:49:54.255Z,28.48
2022-08-26T07:52:26.920Z,28.73
2022-08-26T07:54:56.659Z,29.11
2022-08-26T07:57:25.133Z,29.11
2022-08-26T07:59:54.030Z,28.86
2022-08-26T08:02:23.716Z,28.91
2022-08-26T08:04:52.877Z,29.24
2022-08-26T08:07:38.403Z,29.39
2022-08-26T08:10:13.419Z,28.87
2022-08-26T08:12:42.151Z,28.77
2022-08-26T08:15:13.928Z,28.63
2022-08-26T08:17:43.517Z,28.20
2022-08-26T08:20:13.678Z,27.68
2022-08-26T08:22:44.674Z,27.28
2022-08-26T08:25:13.713Z,26.90
2022-08-26T08:27:45.223Z,26.76
2022-08-26T08:30:14.536Z,26.52
2022-08-26T08:32:43.679Z,26.49
2022-08-26T08:35:13.527Z,26.50
2022-08-26T08:37:45.402Z,26.70
2022-08-26T08:40:18.508Z,27.14
2022-08-26T08:42:50.058Z,28.35
2022-08-26T08:45:24.574Z,29.92
2022-08-26T08:47:56.321Z,30.76
2022-08-26T08:50:30.033Z,31.99
2022-08-26T08:53:09.552Z,32.42
2022-08-26T08:55:48.078Z,32.07
2022-08-26T08:58:20.697Z,31.85
2022-08-26T09:00:56.119Z,31.73
2022-08-26T09:03:38.045Z,32.42
2022-08-26T09:06:17.257Z,33.28
2022-08-26T09:08:49.918Z,33.66
2022-08-26T09:11:21.326Z,34.35
2022-08-26T09:13:54.417Z,34.56
2022-08-26T09:16:28.929Z,34.73
2022-08-26T09:19:12.286Z,34.08
2022-08-26T09:21:40.598Z,33.05
2022-08-26T09:24:11.358Z,31.89
2022-08-26T09:26:48.118Z,30.99
2022-08-26T09:29:26.026Z,30.18
2022-08-26T09:32:16.247Z,30.45
2022-08-26T09:34:55.815Z,30.48
2022-08-26T09:37:36.811Z,29.90
2022-08-26T09:40:21.497Z,29.83
2022-08-26T09:43:14.360Z,29.58
2022-08-26T09:45:50.079Z,29.69
2022-08-26T09:48:28.581Z,30.17
2022-08-26T09:50:59.333Z,30.29
2022-08-26T09:53:30.899Z,30.38
2022-08-26T09:56:15.994Z,29.45
2022-08-26T09:58:47.340Z,28.87
2022-08-26T10:01:27.858Z,28.25
2022-08-26T10:04:07.462Z,27.66
2022-08-26T10:06:41.919Z,27.23
2022-08-26T10:09:13.924Z,27.22
2022-08-26T10:11:47.889Z,27.44
2022-08-26T10:14:22.524Z,27.36
2022-08-26T10:17:00.018Z,27.24
2022-08-26T10:19:55.979Z,27.12
2022-08-26T10:22:33.791Z,27.02
2022-08-26T10:25:06.787Z,26.97
2022-08-26T10:27:48.461Z,27.04
2022-08-26T10:30:23.549Z,27.12
2022-08-26T10:32:54.590Z,27.10
2022-08-26T10:35:23.704Z,26.97
2022-08-26T10:37:57.350Z,27.06
2022-08-26T10:40:29.175Z,27.51
2022-08-26T10:43:10.977Z,27.90
2022-08-26T10:45:45.685Z,28.49
2022-08-26T10:48:18.602Z,28.62
2022-08-26T10:50:48.339Z,28.34
2022-08-26T10:53:25.226Z,28.24
2022-08-26T10:56:01.372Z,28.65
2022-08-26T10:58:49.908Z,29.00
2022-08-26T11:01:41.333Z,29.35
2022-08-26T11:04:22.577Z,29.32
2022-08-26T11:06:51.635Z,28.94
2022-08-26T11:09:45.618Z,28.73
2022-08-26T11:12:49.280Z,28.73
2022-08-26T11:15:50.969Z,28.78
2022-08-26T11:18:39.736Z,29.16
2022-08-26T11:21:47.752Z,29.02
2022-08-26T11:24:44.143Z,28.99
2022-08-26T11:27:35.347Z,28.88
2022-08-26T11:30:08.778Z,28.76
2022-08-26T11:32:50.446Z,28.78
2022-08-26T11:35:49.256Z,28.37
2022-08-26T11:38:30.450Z,28.06
2022-08-26T11:41:09.500Z,27.82
2022-08-26T11:43:41.436Z,27.55
2022-08-26T11:46:12.537Z,27.16
2022-08-26T11:48:43.065Z,27.14
2022-08-26T11:51:22.272Z,27.24
2022-08-26T11:53:51.947Z,27.26
2022-08-26T11:56:31.672Z,27.49
2022-08-26T11:59:02.626Z,27.66
2022-08-26T12:01:33.419Z,27.34
2022-08-26T12:04:02.902Z,27.12
2022-08-26T12:06:38.909Z,27.07
2022-08-26T12:09:21.118Z,26.93
2022-08-26T12:11:49.465Z,26.84
2022-08-26T12:14:20.825Z,26.80
2022-08-26T12:16:49.692Z,26.82
2022-08-26T12:19:32.880Z,26.74
2022-08-26T12:22:07.937Z,27.33
2022-08-26T12:24:37.179Z,27.86
2022-08-26T12:27:15.720Z,27.70
2022-08-26T12:29:44.294Z,27.54
2022-08-26T12:32:19.600Z,27.62
2022-08-26T12:34:50.175Z,27.68
2022-08-26T12:37:20.237Z,27.76
2022-08-26T12:39:49.360Z,27.80
2022-08-26T12:42:39.918Z,27.71
2022-08-26T12:45:10.298Z,27.68
2022-08-26T12:47:43.048Z,27.64
2022-08-26T12:50:18.839Z,27.81
2022-08-26T12:52:59.585Z,28.08
2022-08-26T12:55:36.978Z,28.36
2022-08-26T12:58:16.138Z,28.48
2022-08-26T13:00:46.689Z,28.38
2022-08-26T13:03:44.673Z,28.12
2022-08-26T13:06:19.436Z,28.02
2022-08-26T13:08:51.580Z,28.06
2022-08-26T13:11:22.248Z,28.08
2022-08-26T13:13:53.421Z,27.94
2022-08-26T13:16:23.371Z,27.64
2022-08-26T13:18:55.996Z,27.47
2022-08-26T13:21:28.592Z,27.52
2022-08-26T13:24:08.658Z,27.44
2022-08-26T13:26:37.058Z,27.20
2022-08-26T13:29:10.228Z,27.05
2022-08-26T13:31:40.961Z,26.88
2022-08-26T13:34:13.352Z,26.95
2022-08-26T13:36:45.084Z,27.20
2022-08-26T13:39:14.761Z,27.13
2022-08-26T13:41:43.423Z,27.19
2022-08-26T13:44:12.317Z,27.24
2022-08-26T13:46:41.574Z,27.11
2022-08-26T13:49:11.285Z,27.13
2022-08-26T13:51:40.165Z,27.06
2022-08-26T13:54:08.538Z,27.03
2022-08-26T13:56:38.389Z,27.25
2022-08-26T13:59:07.023Z,27.48
2022-08-26T14:01:36.662Z,27.58
2022-08-26T14:04:05.445Z,27.53
2022-08-26T14:06:34.717Z,27.47
2022-08-26T14:09:04.435Z,27.33
2022-08-26T14:11:41.146Z,27.14
2022-08-26T14:14:23.751Z,26.97
2022-08-26T14:17:00.119Z,27.01
2022-08-26T14:19:30.618Z,26.96
2022-08-26T14:22:00.935Z,27.00
2022-08-26T14:24:29.692Z,26.72
2022-08-26T14:26:57.986Z,26.22
2022-08-26T14:29:27.802Z,25.83
2022-08-26T14:31:58.794Z,25.53
2022-08-26T14:34:27.306Z,25.32
2022-08-26T14:36:55.606Z,25.08
2022-08-26T14:39:23.921Z,25.11
2022-08-26T14:41:55.986Z,25.09
2022-08-26T14:44:30.662Z,25.03
2022-08-26T14:47:02.031Z,25.17
2022-08-26T14:49:31.423Z,25.27
2022-08-26T14:51:59.825Z,25.24
2022-08-26T14:54:28.993Z,25.26
2022-08-26T14:57:01.389Z,25.28
2022-08-26T14:59:33.580Z,25.08
2022-08-26T15:02:03.083Z,24.98
2022-08-26T15:04:31.806Z,24.93
2022-08-26T15:07:01.737Z,24.91
2022-08-26T15:09:31.752Z,24.82
2022-08-26T15:12:00.222Z,24.67
2022-08-26T15:14:32.830Z,24.76
2022-08-26T15:17:04.884Z,24.90
2022-08-26T15:19:33.225Z,24.82
2022-08-26T15:22:01.483Z,24.82
2022-08-26T15:24:31.756Z,24.84
2022-08-26T15:27:00.620Z,24.91
2022-08-26T15:29:28.926Z,25.00
2022-08-26T15:31:59.114Z,25.21
2022-08-26T15:34:29.162Z,25.23
2022-08-26T15:36:58.629Z,25.19
2022-08-26T15:39:27.368Z,25.26
2022-08-26T15:41:56.644Z,25.18
2022-08-26T15:44:26.631Z,25.11
2022-08-26T15:46:58.616Z,25.01
2022-08-26T15:49:28.705Z,24.87
2022-08-26T15:51:57.291Z,24.69
2022-08-26T15:54:25.656Z,24.57
2022-08-26T15:56:54.010Z,24.41
2022-08-26T15:59:23.825Z,24.27
2022-08-26T16:01:52.952Z,24.06
2022-08-26T16:04:21.522Z,23.95
2022-08-26T16:06:52.332Z,24.00
2022-08-26T16:09:24.313Z,24.04
2022-08-26T16:11:52.931Z,24.03
2022-08-26T16:14:21.781Z,23.99
2022-08-26T16:16:50.829Z,23.91
2022-08-26T16:19:19.486Z,23.81
2022-08-26T16:21:48.277Z,23.68
2022-08-26T16:24:21.382Z,23.61
2022-08-26T16:26:50.369Z,23.58
2022-08-26T16:29:19.296Z,23.59
2022-08-26T16:31:50.613Z,23.59
2022-08-26T16:34:18.895Z,23.72
2022-08-26T16:36:47.515Z,23.81
2022-08-26T16:39:17.550Z,23.88
2022-08-26T16:41:45.911Z,23.80
2022-08-26T16:44:14.205Z,23.68
2022-08-26T16:46:42.536Z,23.54
2022-08-26T16:49:10.810Z,23.38
2022-08-26T16:51:39.323Z,23.30
2022-08-26T16:54:09.440Z,23.30
2022-08-26T16:56:39.694Z,23.14
2022-08-26T16:59:11.675Z,23.11
2022-08-26T17:01:40.309Z,22.83
2022-08-26T17:04:10.827Z,22.88
2022-08-26T17:06:39.225Z,22.87
2022-08-26T17:09:07.556Z,22.82
2022-08-26T17:11:36.553Z,22.78
2022-08-26T17:14:07.757Z,22.80
2022-08-26T17:16:36.177Z,22.75
2022-08-26T17:19:05.756Z,22.69
2022-08-26T17:21:35.422Z,22.69
2022-08-26T17:24:04.633Z,22.63
2022-08-26T17:26:33.530Z,22.60
2022-08-26T17:29:02.006Z,22.56
2022-08-26T17:31:32.591Z,22.53
2022-08-26T17:34:00.952Z,22.56
2022-08-26T17:36:29.290Z,22.57
2022-08-26T17:38:58.673Z,22.59
2022-08-26T17:41:28.176Z,22.59
2022-08-26T17:43:57.235Z,22.54
2022-08-26T17:46:26.034Z,22.49
2022-08-26T17:48:56.450Z,22.47
2022-08-26T17:51:24.982Z,22.35
2022-08-26T17:53:53.860Z,22.24
2022-08-26T17:56:25.590Z,22.16
2022-08-26T17:58:55.103Z,22.07
2022-08-26T18:01:27.949Z,22.03
2022-08-26T18:04:00.376Z,22.00
2022-08-26T18:06:31.433Z,21.87
2022-08-26T18:09:00.310Z,21.76
2022-08-26T18:11:29.696Z,21.65
2022-08-26T18:13:59.330Z,21.57
2022-08-26T18:16:28.188Z,21.53
2022-08-26T18:18:58.495Z,21.52
2022-08-26T18:21:28.904Z,21.49
2022-08-26T18:23:57.290Z,21.42
2022-08-26T18:26:27.775Z,21.35
2022-08-26T18:28:56.224Z,21.31
2022-08-26T18:31:25.004Z,21.27
2022-08-26T18:33:53.674Z,21.22
2022-08-26T18:36:27.461Z,21.11
2022-08-26T18:38:56.529Z,21.04
2022-08-26T18:41:27.028Z,21.06
2022-08-26T18:43:56.266Z,21.00
2022-08-26T18:46:27.333Z,20.96
2022-08-26T18:48:57.483Z,20.81
2022-08-26T18:51:30.389Z,20.63
2022-08-26T18:54:00.328Z,20.50
2022-08-26T18:56:29.613Z,20.32
2022-08-26T18:58:58.401Z,20.23
2022-08-26T19:01:27.801Z,20.06
2022-08-26T19:03:56.267Z,19.92
2022-08-26T19:06:25.821Z,19.85
2022-08-26T19:08:58.012Z,19.75
2022-08-26T19:11:31.610Z,19.65
2022-08-26T19:14:01.424Z,19.60
2022-08-26T19:16:30.839Z,19.56
2022-08-26T19:19:01.073Z,19.50
2022-08-26T19:21:31.063Z,19.46
2022-08-26T19:24:02.855Z,19.39
2022-08-26T19:26:31.998Z,19.28
2022-08-26T19:29:00.775Z,19.22
2022-08-26T19:31:29.533Z,19.14
2022-08-26T19:33:59.064Z,19.10
2022-08-26T19:36:29.066Z,19.05
2022-08-26T19:38:57.298Z,18.98
2022-08-26T19:41:37.224Z,18.91
2022-08-26T19:44:08.406Z,18.87
2022-08-26T19:49:10.477Z,18.78
2022-08-26T19:51:38.928Z,18.74
2022-08-26T19:54:07.346Z,18.70
2022-08-26T19:56:36.986Z,18.69
2022-08-26T19:59:05.585Z,18.64
2022-08-26T20:01:33.845Z,18.64
2022-08-26T20:04:02.580Z,18.60
2022-08-26T20:06:31.307Z,18.56
2022-08-26T20:08:59.863Z,18.50
2022-08-26T20:11:28.154Z,18.45
2022-08-26T20:13:57.761Z,18.42
2022-08-26T20:16:25.946Z,18.39
2022-08-26T20:19:11.458Z,18.38
2022-08-26T20:21:42.548Z,18.35
2022-08-26T20:24:13.980Z,18.32
2022-08-26T20:26:45.009Z,18.31
2022-08-26T20:29:18.372Z,18.28
2022-08-26T20:31:47.471Z,18.24
2022-08-26T20:34:18.562Z,18.19
2022-08-26T20:36:49.296Z,18.19
2022-08-26T20:39:21.049Z,18.17
2022-08-26T20:41:50.121Z,18.11
2022-08-26T20:44:20.041Z,18.10
2022-08-26T20:46:49.241Z,18.01
2022-08-26T20:49:18.281Z,17.96
2022-08-26T20:51:52.151Z,17.93
2022-08-26T20:54:25.026Z,17.91
2022-08-26T20:56:56.737Z,17.84
2022-08-26T20:59:27.747Z,17.81
2022-08-26T21:01:56.541Z,17.76
2022-08-26T21:04:27.378Z,17.70
2022-08-26T21:06:56.600Z,17.64
2022-08-26T21:09:27.407Z,17.64
2022-08-26T21:11:57.194Z,17.57
2022-08-26T21:14:26.844Z,17.56
2022-08-26T21:16:55.296Z,17.56
2022-08-26T21:19:23.831Z,17.51
2022-08-26T21:21:52.219Z,17.49
2022-08-26T21:24:20.686Z,17.45
2022-08-26T21:26:49.392Z,17.45
2022-08-26T21:29:17.796Z,17.44
2022-08-26T21:31:47.456Z,17.47
2022-08-26T21:34:16.217Z,17.45
2022-08-26T21:36:44.745Z,17.44
2022-08-26T21:39:13.921Z,17.42
2022-08-26T21:41:43.213Z,17.42
2022-08-26T21:44:13.243Z,17.41
2022-08-26T21:46:45.143Z,17.40
2022-08-26T21:49:16.641Z,17.36
2022-08-26T21:51:48.133Z,17.32
2022-08-26T21:54:18.147Z,17.27
2022-08-26T21:56:48.072Z,17.24
2022-08-26T21:59:18.830Z,17.19
2022-08-26T22:01:47.947Z,17.14
2022-08-26T22:04:18.403Z,17.14
2022-08-26T22:06:48.832Z,17.09
2022-08-26T22:09:19.143Z,17.04
2022-08-26T22:11:48.019Z,17.02
2022-08-26T22:14:18.548Z,17.01
2022-08-26T22:16:50.388Z,16.97
2022-08-26T22:19:23.645Z,16.96
2022-08-26T22:21:54.770Z,16.92
2022-08-26T22:24:24.840Z,16.90
2022-08-26T22:26:54.255Z,16.90
2022-08-26T22:29:22.940Z,16.88
2022-08-26T22:31:51.292Z,16.84
2022-08-26T22:34:23.237Z,16.82
2022-08-26T22:36:52.089Z,16.78
2022-08-26T22:39:22.745Z,16.80
2022-08-26T22:41:51.568Z,16.81
2022-08-26T22:44:22.236Z,16.80
2022-08-26T22:46:54.385Z,16.77
2022-08-26T22:49:24.504Z,16.73
2022-08-26T22:51:52.833Z,16.70
2022-08-26T22:54:21.951Z,16.68
2022-08-26T22:56:50.481Z,16.67
2022-08-26T22:59:18.729Z,16.70
2022-08-26T23:01:47.494Z,16.72
2022-08-26T23:04:16.020Z,16.75
2022-08-26T23:06:47.603Z,16.79
2022-08-26T23:09:18.423Z,16.74
2022-08-26T23:11:55.141Z,16.66
2022-08-26T23:14:25.037Z,16.61
2022-08-26T23:16:53.869Z,16.55
2022-08-26T23:19:23.811Z,16.47
2022-08-26T23:21:53.870Z,16.40
2022-08-26T23:24:22.156Z,16.35
2022-08-26T23:26:50.602Z,16.34
2022-08-26T23:29:18.937Z,16.31
2022-08-26T23:31:47.252Z,16.31
2022-08-26T23:34:33.069Z,16.35
2022-08-26T23:37:04.856Z,16.35
2022-08-26T23:39:36.398Z,16.34
2022-08-26T23:42:06.623Z,16.33
2022-08-26T23:44:35.086Z,16.32
2022-08-26T23:47:04.409Z,16.30
2022-08-26T23:49:33.506Z,16.29
2022-08-26T23:52:20.976Z,16.31
2022-08-26T23:54:49.292Z,16.28
2022-08-26T23:57:18.681Z,16.28
2022-08-26T23:59:48.590Z,16.29
